sensor_id;sensor_type;location;lat;lon;timestamp;temperature;humidity
12130;DHT22;6128;59.340;18.040;2023-07-22T00:01:37;15.20;99.90
12130;DHT22;6128;59.340;18.040;2023-07-22T00:04:04;15.20;99.90
12130;DHT22;6128;59.340;18.040;2023-07-22T00:06:32;15.20;99.90
12130;DHT22;6128;59.340;18.040;2023-07-22T00:08:59;15.10;99.90
12130;DHT22;6128;59.340;18.040;2023-07-22T00:11:26;15.10;99.90
12130;DHT22;6128;59.340;18.040;2023-07-22T00:13:54;15.10;99.90
12130;DHT22;6128;59.340;18.040;2023-07-22T00:16:21;15.10;99.90
12130;DHT22;6128;59.340;18.040;2023-07-22T00:18:49;15.10;99.90
12130;DHT22;6128;59.340;18.040;2023-07-22T00:21:16;15.10;99.90
12130;DHT22;6128;59.340;18.040;2023-07-22T00:23:43;15.00;99.90
12130;DHT22;6128;59.340;18.040;2023-07-22T00:26:11;15.00;99.90
12130;DHT22;6128;59.340;18.040;2023-07-22T00:28:39;15.00;99.90
12130;DHT22;6128;59.340;18.040;2023-07-22T00:31:07;15.00;99.90
12130;DHT22;6128;59.340;18.040;2023-07-22T00:33:34;14.90;99.90
12130;DHT22;6128;59.340;18.040;2023-07-22T00:36:01;14.90;99.90
12130;DHT22;6128;59.340;18.040;2023-07-22T00:38:29;14.90;99.90
12130;DHT22;6128;59.340;18.040;2023-07-22T00:40:56;14.90;99.90
12130;DHT22;6128;59.340;18.040;2023-07-22T00:43:23;14.80;99.90
12130;DHT22;6128;59.340;18.040;2023-07-22T00:45:51;14.80;99.90
12130;DHT22;6128;59.340;18.040;2023-07-22T00:48:20;14.80;99.90
12130;DHT22;6128;59.340;18.040;2023-07-22T00:50:48;14.80;99.90
12130;DHT22;6128;59.340;18.040;2023-07-22T00:53:15;14.80;99.90
12130;DHT22;6128;59.340;18.040;2023-07-22T00:55:45;14.80;99.90
12130;DHT22;6128;59.340;18.040;2023-07-22T00:58:12;14.70;99.90
12130;DHT22;6128;59.340;18.040;2023-07-22T01:00:39;14.70;99.90
12130;DHT22;6128;59.340;18.040;2023-07-22T01:03:06;14.70;99.90
12130;DHT22;6128;59.340;18.040;2023-07-22T01:05:35;14.70;99.90
12130;DHT22;6128;59.340;18.040;2023-07-22T01:08:04;14.70;99.90
12130;DHT22;6128;59.340;18.040;2023-07-22T01:10:31;14.70;99.90
12130;DHT22;6128;59.340;18.040;2023-07-22T01:12:58;14.70;99.90
12130;DHT22;6128;59.340;18.040;2023-07-22T01:15:26;14.60;99.90
12130;DHT22;6128;59.340;18.040;2023-07-22T01:17:53;14.60;99.90
12130;DHT22;6128;59.340;18.040;2023-07-22T01:20:23;14.60;99.90
12130;DHT22;6128;59.340;18.040;2023-07-22T01:22:52;14.60;99.90
12130;DHT22;6128;59.340;18.040;2023-07-22T01:25:20;14.60;99.90
12130;DHT22;6128;59.340;18.040;2023-07-22T01:27:48;14.60;99.90
12130;DHT22;6128;59.340;18.040;2023-07-22T01:30:15;14.50;99.90
12130;DHT22;6128;59.340;18.040;2023-07-22T01:32:42;14.50;99.90
12130;DHT22;6128;59.340;18.040;2023-07-22T01:35:10;14.50;99.90
12130;DHT22;6128;59.340;18.040;2023-07-22T01:37:37;14.50;99.90
12130;DHT22;6128;59.340;18.040;2023-07-22T01:40:06;14.50;99.90
12130;DHT22;6128;59.340;18.040;2023-07-22T01:42:37;14.50;99.90
12130;DHT22;6128;59.340;18.040;2023-07-22T01:45:06;14.50;99.90
12130;DHT22;6128;59.340;18.040;2023-07-22T01:47:33;14.40;99.90
12130;DHT22;6128;59.340;18.040;2023-07-22T01:50:01;14.40;99.90
12130;DHT22;6128;59.340;18.040;2023-07-22T01:52:28;14.40;99.90
12130;DHT22;6128;59.340;18.040;2023-07-22T01:54:55;14.40;99.90
12130;DHT22;6128;59.340;18.040;2023-07-22T01:57:24;14.40;99.90
12130;DHT22;6128;59.340;18.040;2023-07-22T01:59:51;14.40;99.90
12130;DHT22;6128;59.340;18.040;2023-07-22T02:02:19;14.40;99.90
12130;DHT22;6128;59.340;18.040;2023-07-22T02:04:46;14.30;99.90
12130;DHT22;6128;59.340;18.040;2023-07-22T02:07:13;14.40;99.90
12130;DHT22;6128;59.340;18.040;2023-07-22T02:09:40;14.40;99.90
12130;DHT22;6128;59.340;18.040;2023-07-22T02:12:08;14.30;99.90
12130;DHT22;6128;59.340;18.040;2023-07-22T02:14:37;14.30;99.90
12130;DHT22;6128;59.340;18.040;2023-07-22T02:17:05;14.30;99.90
12130;DHT22;6128;59.340;18.040;2023-07-22T02:19:34;14.30;99.90
12130;DHT22;6128;59.340;18.040;2023-07-22T02:22:03;14.30;99.90
12130;DHT22;6128;59.340;18.040;2023-07-22T02:24:30;14.30;99.90
12130;DHT22;6128;59.340;18.040;2023-07-22T02:26:58;14.30;99.90
12130;DHT22;6128;59.340;18.040;2023-07-22T02:29:25;14.30;99.90
12130;DHT22;6128;59.340;18.040;2023-07-22T02:31:54;14.30;99.90
12130;DHT22;6128;59.340;18.040;2023-07-22T02:34:21;14.30;99.90
12130;DHT22;6128;59.340;18.040;2023-07-22T02:36:48;14.30;99.90
12130;DHT22;6128;59.340;18.040;2023-07-22T02:39:15;14.30;99.90
12130;DHT22;6128;59.340;18.040;2023-07-22T02:41:43;14.30;99.90
12130;DHT22;6128;59.340;18.040;2023-07-22T02:44:10;14.30;99.90
12130;DHT22;6128;59.340;18.040;2023-07-22T02:46:38;14.30;99.90
12130;DHT22;6128;59.340;18.040;2023-07-22T02:49:06;14.30;99.90
12130;DHT22;6128;59.340;18.040;2023-07-22T02:51:34;14.30;99.90
12130;DHT22;6128;59.340;18.040;2023-07-22T02:54:02;14.30;99.90
12130;DHT22;6128;59.340;18.040;2023-07-22T02:56:29;14.30;99.90
12130;DHT22;6128;59.340;18.040;2023-07-22T02:58:56;14.30;99.90
12130;DHT22;6128;59.340;18.040;2023-07-22T03:01:23;14.30;99.90
12130;DHT22;6128;59.340;18.040;2023-07-22T03:03:51;14.30;99.90
12130;DHT22;6128;59.340;18.040;2023-07-22T03:06:19;14.30;99.90
12130;DHT22;6128;59.340;18.040;2023-07-22T03:08:47;14.30;99.90
12130;DHT22;6128;59.340;18.040;2023-07-22T03:11:15;14.30;99.90
12130;DHT22;6128;59.340;18.040;2023-07-22T03:13:42;14.30;99.90
12130;DHT22;6128;59.340;18.040;2023-07-22T03:16:09;14.30;99.90
12130;DHT22;6128;59.340;18.040;2023-07-22T03:18:36;14.30;99.90
12130;DHT22;6128;59.340;18.040;2023-07-22T03:21:05;14.30;99.90
12130;DHT22;6128;59.340;18.040;2023-07-22T03:23:34;14.30;99.90
12130;DHT22;6128;59.340;18.040;2023-07-22T03:26:01;14.30;99.90
12130;DHT22;6128;59.340;18.040;2023-07-22T03:28:28;14.30;99.90
12130;DHT22;6128;59.340;18.040;2023-07-22T03:30:55;14.30;99.90
12130;DHT22;6128;59.340;18.040;2023-07-22T03:33:22;14.30;99.90
12130;DHT22;6128;59.340;18.040;2023-07-22T03:35:49;14.40;99.90
12130;DHT22;6128;59.340;18.040;2023-07-22T03:38:16;14.30;99.90
12130;DHT22;6128;59.340;18.040;2023-07-22T03:40:45;14.30;99.90
12130;DHT22;6128;59.340;18.040;2023-07-22T03:43:13;14.30;99.90
12130;DHT22;6128;59.340;18.040;2023-07-22T03:45:40;14.30;99.90
12130;DHT22;6128;59.340;18.040;2023-07-22T03:48:07;14.30;99.90
12130;DHT22;6128;59.340;18.040;2023-07-22T03:50:34;14.30;99.90
12130;DHT22;6128;59.340;18.040;2023-07-22T03:53:01;14.30;99.90
12130;DHT22;6128;59.340;18.040;2023-07-22T03:55:28;14.20;99.90
12130;DHT22;6128;59.340;18.040;2023-07-22T03:57:57;14.20;99.90
12130;DHT22;6128;59.340;18.040;2023-07-22T04:00:24;14.30;99.90
12130;DHT22;6128;59.340;18.040;2023-07-22T04:02:51;14.30;99.90
12130;DHT22;6128;59.340;18.040;2023-07-22T04:05:18;14.30;99.90
12130;DHT22;6128;59.340;18.040;2023-07-22T04:07:45;14.30;99.90
12130;DHT22;6128;59.340;18.040;2023-07-22T04:10:12;14.40;99.90
12130;DHT22;6128;59.340;18.040;2023-07-22T04:12:39;14.40;99.90
12130;DHT22;6128;59.340;18.040;2023-07-22T04:15:09;14.50;99.90
12130;DHT22;6128;59.340;18.040;2023-07-22T04:17:36;14.50;99.90
12130;DHT22;6128;59.340;18.040;2023-07-22T04:20:03;14.50;99.90
12130;DHT22;6128;59.340;18.040;2023-07-22T04:22:30;14.50;99.90
12130;DHT22;6128;59.340;18.040;2023-07-22T04:24:58;14.50;99.90
12130;DHT22;6128;59.340;18.040;2023-07-22T04:27:26;14.60;99.90
12130;DHT22;6128;59.340;18.040;2023-07-22T04:29:54;14.60;99.90
12130;DHT22;6128;59.340;18.040;2023-07-22T04:32:23;14.70;99.90
12130;DHT22;6128;59.340;18.040;2023-07-22T04:34:50;14.70;99.90
12130;DHT22;6128;59.340;18.040;2023-07-22T04:37:17;14.80;99.90
12130;DHT22;6128;59.340;18.040;2023-07-22T04:39:48;14.80;99.90
12130;DHT22;6128;59.340;18.040;2023-07-22T04:42:15;14.80;99.90
12130;DHT22;6128;59.340;18.040;2023-07-22T04:44:42;14.80;99.90
12130;DHT22;6128;59.340;18.040;2023-07-22T04:47:10;14.70;99.90
12130;DHT22;6128;59.340;18.040;2023-07-22T04:49:39;14.80;99.90
12130;DHT22;6128;59.340;18.040;2023-07-22T04:52:07;14.80;99.90
12130;DHT22;6128;59.340;18.040;2023-07-22T04:54:34;14.80;99.90
12130;DHT22;6128;59.340;18.040;2023-07-22T04:57:01;14.80;99.90
12130;DHT22;6128;59.340;18.040;2023-07-22T04:59:29;14.90;99.90
12130;DHT22;6128;59.340;18.040;2023-07-22T05:01:56;14.90;99.90
12130;DHT22;6128;59.340;18.040;2023-07-22T05:04:23;14.90;99.90
12130;DHT22;6128;59.340;18.040;2023-07-22T05:06:51;14.90;99.90
12130;DHT22;6128;59.340;18.040;2023-07-22T05:09:18;14.90;99.90
12130;DHT22;6128;59.340;18.040;2023-07-22T05:11:45;14.90;99.90
12130;DHT22;6128;59.340;18.040;2023-07-22T05:14:12;15.00;99.90
12130;DHT22;6128;59.340;18.040;2023-07-22T05:16:39;14.90;99.90
12130;DHT22;6128;59.340;18.040;2023-07-22T05:19:06;14.90;99.90
12130;DHT22;6128;59.340;18.040;2023-07-22T05:21:34;14.90;99.90
12130;DHT22;6128;59.340;18.040;2023-07-22T05:24:03;15.00;99.90
12130;DHT22;6128;59.340;18.040;2023-07-22T05:26:30;15.10;99.90
12130;DHT22;6128;59.340;18.040;2023-07-22T05:28:57;15.10;99.90
12130;DHT22;6128;59.340;18.040;2023-07-22T05:31:24;15.10;99.90
12130;DHT22;6128;59.340;18.040;2023-07-22T05:33:51;15.20;99.90
12130;DHT22;6128;59.340;18.040;2023-07-22T05:36:19;15.30;99.90
12130;DHT22;6128;59.340;18.040;2023-07-22T05:38:46;15.30;99.90
12130;DHT22;6128;59.340;18.040;2023-07-22T05:41:14;15.40;99.90
12130;DHT22;6128;59.340;18.040;2023-07-22T05:43:41;15.50;99.90
12130;DHT22;6128;59.340;18.040;2023-07-22T05:46:08;15.60;99.90
12130;DHT22;6128;59.340;18.040;2023-07-22T05:48:35;15.60;99.90
12130;DHT22;6128;59.340;18.040;2023-07-22T05:51:02;15.70;99.90
12130;DHT22;6128;59.340;18.040;2023-07-22T05:53:31;15.80;99.90
12130;DHT22;6128;59.340;18.040;2023-07-22T05:55:58;15.80;99.90
12130;DHT22;6128;59.340;18.040;2023-07-22T05:58:26;15.90;99.90
12130;DHT22;6128;59.340;18.040;2023-07-22T06:00:53;16.10;99.90
12130;DHT22;6128;59.340;18.040;2023-07-22T06:03:21;16.30;99.90
12130;DHT22;6128;59.340;18.040;2023-07-22T06:05:48;16.60;99.90
12130;DHT22;6128;59.340;18.040;2023-07-22T06:08:15;17.00;99.90
12130;DHT22;6128;59.340;18.040;2023-07-22T06:10:42;17.50;99.90
12130;DHT22;6128;59.340;18.040;2023-07-22T06:13:09;18.30;99.90
12130;DHT22;6128;59.340;18.040;2023-07-22T06:15:37;19.30;99.90
12130;DHT22;6128;59.340;18.040;2023-07-22T06:18:05;20.00;99.90
12130;DHT22;6128;59.340;18.040;2023-07-22T06:20:35;20.20;99.90
12130;DHT22;6128;59.340;18.040;2023-07-22T06:23:02;20.80;99.90
12130;DHT22;6128;59.340;18.040;2023-07-22T06:25:29;21.50;99.90
12130;DHT22;6128;59.340;18.040;2023-07-22T06:27:56;21.70;99.90
12130;DHT22;6128;59.340;18.040;2023-07-22T06:30:23;22.10;99.90
12130;DHT22;6128;59.340;18.040;2023-07-22T06:32:52;22.40;99.90
12130;DHT22;6128;59.340;18.040;2023-07-22T06:35:19;22.40;99.90
12130;DHT22;6128;59.340;18.040;2023-07-22T06:37:46;22.70;99.90
12130;DHT22;6128;59.340;18.040;2023-07-22T06:40:13;22.20;99.90
12130;DHT22;6128;59.340;18.040;2023-07-22T06:42:40;22.20;99.90
12130;DHT22;6128;59.340;18.040;2023-07-22T06:45:08;22.20;99.90
12130;DHT22;6128;59.340;18.040;2023-07-22T06:47:36;22.70;99.90
12130;DHT22;6128;59.340;18.040;2023-07-22T06:50:05;22.80;99.90
12130;DHT22;6128;59.340;18.040;2023-07-22T06:52:32;22.50;99.90
12130;DHT22;6128;59.340;18.040;2023-07-22T06:54:59;22.50;99.90
12130;DHT22;6128;59.340;18.040;2023-07-22T06:57:27;22.30;99.90
12130;DHT22;6128;59.340;18.040;2023-07-22T06:59:54;22.20;99.90
12130;DHT22;6128;59.340;18.040;2023-07-22T07:02:21;22.40;99.90
12130;DHT22;6128;59.340;18.040;2023-07-22T07:04:49;22.70;99.90
12130;DHT22;6128;59.340;18.040;2023-07-22T07:07:17;23.10;99.90
12130;DHT22;6128;59.340;18.040;2023-07-22T07:09:44;23.10;99.90
12130;DHT22;6128;59.340;18.040;2023-07-22T07:12:11;23.40;99.90
12130;DHT22;6128;59.340;18.040;2023-07-22T07:14:39;23.70;99.90
12130;DHT22;6128;59.340;18.040;2023-07-22T07:17:06;23.80;99.90
12130;DHT22;6128;59.340;18.040;2023-07-22T07:19:33;23.90;99.90
12130;DHT22;6128;59.340;18.040;2023-07-22T07:22:00;24.10;99.90
12130;DHT22;6128;59.340;18.040;2023-07-22T07:24:29;24.30;99.90
12130;DHT22;6128;59.340;18.040;2023-07-22T07:26:56;25.20;99.90
12130;DHT22;6128;59.340;18.040;2023-07-22T07:29:23;26.00;99.90
12130;DHT22;6128;59.340;18.040;2023-07-22T07:31:50;26.30;99.90
12130;DHT22;6128;59.340;18.040;2023-07-22T07:34:17;26.20;99.90
12130;DHT22;6128;59.340;18.040;2023-07-22T07:36:44;26.70;99.80
12130;DHT22;6128;59.340;18.040;2023-07-22T07:39:11;26.80;99.70
12130;DHT22;6128;59.340;18.040;2023-07-22T07:41:39;26.80;99.50
12130;DHT22;6128;59.340;18.040;2023-07-22T07:44:06;26.40;99.20
12130;DHT22;6128;59.340;18.040;2023-07-22T07:46:33;25.70;98.70
12130;DHT22;6128;59.340;18.040;2023-07-22T07:49:01;25.00;98.20
12130;DHT22;6128;59.340;18.040;2023-07-22T07:51:29;25.10;97.60
12130;DHT22;6128;59.340;18.040;2023-07-22T07:53:58;24.70;97.10
12130;DHT22;6128;59.340;18.040;2023-07-22T07:56:25;24.20;96.70
12130;DHT22;6128;59.340;18.040;2023-07-22T07:58:54;24.20;96.40
12130;DHT22;6128;59.340;18.040;2023-07-22T08:01:21;24.50;96.20
12130;DHT22;6128;59.340;18.040;2023-07-22T08:03:48;25.00;96.00
12130;DHT22;6128;59.340;18.040;2023-07-22T08:06:16;25.30;95.80
12130;DHT22;6128;59.340;18.040;2023-07-22T08:08:43;25.50;95.70
12130;DHT22;6128;59.340;18.040;2023-07-22T08:11:11;25.00;95.50
12130;DHT22;6128;59.340;18.040;2023-07-22T08:13:39;24.00;95.30
12130;DHT22;6128;59.340;18.040;2023-07-22T08:16:09;23.60;95.10
12130;DHT22;6128;59.340;18.040;2023-07-22T08:18:37;23.30;94.90
12130;DHT22;6128;59.340;18.040;2023-07-22T08:21:05;23.60;94.80
12130;DHT22;6128;59.340;18.040;2023-07-22T08:23:34;23.80;94.80
12130;DHT22;6128;59.340;18.040;2023-07-22T08:26:01;23.50;94.80
12130;DHT22;6128;59.340;18.040;2023-07-22T08:28:31;23.80;94.70
12130;DHT22;6128;59.340;18.040;2023-07-22T08:30:58;24.00;94.70
12130;DHT22;6128;59.340;18.040;2023-07-22T08:33:27;24.40;94.70
12130;DHT22;6128;59.340;18.040;2023-07-22T08:35:54;24.60;94.70
12130;DHT22;6128;59.340;18.040;2023-07-22T08:38:22;24.50;94.60
12130;DHT22;6128;59.340;18.040;2023-07-22T08:40:50;24.10;94.70
12130;DHT22;6128;59.340;18.040;2023-07-22T08:43:20;24.10;94.70
12130;DHT22;6128;59.340;18.040;2023-07-22T08:45:48;24.00;94.70
12130;DHT22;6128;59.340;18.040;2023-07-22T08:48:17;24.50;94.70
12130;DHT22;6128;59.340;18.040;2023-07-22T08:50:49;25.00;94.90
12130;DHT22;6128;59.340;18.040;2023-07-22T08:53:17;25.40;94.90
12130;DHT22;6128;59.340;18.040;2023-07-22T08:55:45;25.00;95.00
12130;DHT22;6128;59.340;18.040;2023-07-22T08:58:14;25.00;95.10
12130;DHT22;6128;59.340;18.040;2023-07-22T09:00:42;24.60;95.20
12130;DHT22;6128;59.340;18.040;2023-07-22T09:03:11;25.00;95.20
12130;DHT22;6128;59.340;18.040;2023-07-22T09:05:38;25.20;95.00
12130;DHT22;6128;59.340;18.040;2023-07-22T09:08:08;25.60;95.00
12130;DHT22;6128;59.340;18.040;2023-07-22T09:10:35;26.00;94.60
12130;DHT22;6128;59.340;18.040;2023-07-22T09:13:04;26.90;94.40
12130;DHT22;6128;59.340;18.040;2023-07-22T09:15:35;28.00;94.30
12130;DHT22;6128;59.340;18.040;2023-07-22T09:18:03;27.70;94.00
12130;DHT22;6128;59.340;18.040;2023-07-22T09:20:31;27.80;93.80
12130;DHT22;6128;59.340;18.040;2023-07-22T09:22:59;27.80;93.50
12130;DHT22;6128;59.340;18.040;2023-07-22T09:25:28;27.90;93.20
12130;DHT22;6128;59.340;18.040;2023-07-22T09:27:58;28.40;92.80
12130;DHT22;6128;59.340;18.040;2023-07-22T09:30:27;29.20;92.50
12130;DHT22;6128;59.340;18.040;2023-07-22T09:32:56;29.50;92.20
12130;DHT22;6128;59.340;18.040;2023-07-22T09:35:25;28.90;91.70
12130;DHT22;6128;59.340;18.040;2023-07-22T09:37:53;27.40;89.80
12130;DHT22;6128;59.340;18.040;2023-07-22T09:40:21;25.50;89.70
12130;DHT22;6128;59.340;18.040;2023-07-22T09:42:51;24.50;89.30
12130;DHT22;6128;59.340;18.040;2023-07-22T09:45:19;23.90;89.00
12130;DHT22;6128;59.340;18.040;2023-07-22T09:47:49;23.60;88.80
12130;DHT22;6128;59.340;18.040;2023-07-22T09:50:19;23.30;89.00
12130;DHT22;6128;59.340;18.040;2023-07-22T09:52:48;23.10;88.80
12130;DHT22;6128;59.340;18.040;2023-07-22T09:55:16;23.00;88.70
12130;DHT22;6128;59.340;18.040;2023-07-22T09:57:46;22.90;88.70
12130;DHT22;6128;59.340;18.040;2023-07-22T10:00:15;22.70;88.60
12130;DHT22;6128;59.340;18.040;2023-07-22T10:02:48;22.60;88.40
12130;DHT22;6128;59.340;18.040;2023-07-22T10:05:17;22.50;88.40
12130;DHT22;6128;59.340;18.040;2023-07-22T10:07:46;22.10;88.40
12130;DHT22;6128;59.340;18.040;2023-07-22T10:10:16;21.90;88.30
12130;DHT22;6128;59.340;18.040;2023-07-22T10:12:44;21.80;88.40
12130;DHT22;6128;59.340;18.040;2023-07-22T10:15:15;21.80;88.50
12130;DHT22;6128;59.340;18.040;2023-07-22T10:17:43;21.90;88.70
12130;DHT22;6128;59.340;18.040;2023-07-22T10:20:11;21.80;88.80
12130;DHT22;6128;59.340;18.040;2023-07-22T10:22:42;21.80;88.90
12130;DHT22;6128;59.340;18.040;2023-07-22T10:25:11;21.60;89.00
12130;DHT22;6128;59.340;18.040;2023-07-22T10:27:38;21.40;89.10
12130;DHT22;6128;59.340;18.040;2023-07-22T10:30:07;21.40;89.20
12130;DHT22;6128;59.340;18.040;2023-07-22T10:32:40;21.50;89.30
12130;DHT22;6128;59.340;18.040;2023-07-22T10:35:09;21.30;89.40
12130;DHT22;6128;59.340;18.040;2023-07-22T10:37:37;21.10;89.60
12130;DHT22;6128;59.340;18.040;2023-07-22T10:40:25;21.10;89.60
12130;DHT22;6128;59.340;18.040;2023-07-22T10:42:54;21.20;89.70
12130;DHT22;6128;59.340;18.040;2023-07-22T10:45:28;21.10;89.80
12130;DHT22;6128;59.340;18.040;2023-07-22T10:48:06;21.10;89.90
12130;DHT22;6128;59.340;18.040;2023-07-22T10:50:41;20.90;90.00
12130;DHT22;6128;59.340;18.040;2023-07-22T10:53:10;21.00;90.10
12130;DHT22;6128;59.340;18.040;2023-07-22T10:56:03;21.10;90.10
12130;DHT22;6128;59.340;18.040;2023-07-22T10:58:30;21.40;90.20
12130;DHT22;6128;59.340;18.040;2023-07-22T11:01:22;21.60;90.30
12130;DHT22;6128;59.340;18.040;2023-07-22T11:04:22;21.60;90.30
12130;DHT22;6128;59.340;18.040;2023-07-22T11:06:57;21.60;90.20
12130;DHT22;6128;59.340;18.040;2023-07-22T11:09:35;21.70;90.20
12130;DHT22;6128;59.340;18.040;2023-07-22T11:12:03;21.90;90.20
12130;DHT22;6128;59.340;18.040;2023-07-22T11:14:32;21.80;90.20
12130;DHT22;6128;59.340;18.040;2023-07-22T11:17:01;22.00;90.20
12130;DHT22;6128;59.340;18.040;2023-07-22T11:19:31;21.90;90.20
12130;DHT22;6128;59.340;18.040;2023-07-22T11:21:59;21.80;90.20
12130;DHT22;6128;59.340;18.040;2023-07-22T11:24:26;21.80;90.20
12130;DHT22;6128;59.340;18.040;2023-07-22T11:26:54;21.80;90.20
12130;DHT22;6128;59.340;18.040;2023-07-22T11:29:21;21.90;90.20
12130;DHT22;6128;59.340;18.040;2023-07-22T11:31:50;22.00;90.10
12130;DHT22;6128;59.340;18.040;2023-07-22T11:34:18;22.00;90.10
12130;DHT22;6128;59.340;18.040;2023-07-22T11:36:48;22.00;90.10
12130;DHT22;6128;59.340;18.040;2023-07-22T11:39:18;21.80;90.10
12130;DHT22;6128;59.340;18.040;2023-07-22T11:41:47;21.80;90.00
12130;DHT22;6128;59.340;18.040;2023-07-22T11:44:16;21.70;90.00
12130;DHT22;6128;59.340;18.040;2023-07-22T11:46:52;21.70;90.00
12130;DHT22;6128;59.340;18.040;2023-07-22T11:49:27;21.80;90.00
12130;DHT22;6128;59.340;18.040;2023-07-22T11:51:58;21.80;90.00
12130;DHT22;6128;59.340;18.040;2023-07-22T11:54:26;21.80;90.00
12130;DHT22;6128;59.340;18.040;2023-07-22T11:56:53;21.90;90.10
12130;DHT22;6128;59.340;18.040;2023-07-22T12:02:02;21.80;89.90
12130;DHT22;6128;59.340;18.040;2023-07-22T12:04:31;21.90;89.90
12130;DHT22;6128;59.340;18.040;2023-07-22T12:07:00;21.90;89.90
12130;DHT22;6128;59.340;18.040;2023-07-22T12:09:27;21.90;89.80
12130;DHT22;6128;59.340;18.040;2023-07-22T12:11:57;21.80;89.70
12130;DHT22;6128;59.340;18.040;2023-07-22T12:14:32;21.80;89.50
12130;DHT22;6128;59.340;18.040;2023-07-22T12:17:00;21.90;89.70
12130;DHT22;6128;59.340;18.040;2023-07-22T12:19:28;22.20;89.60
12130;DHT22;6128;59.340;18.040;2023-07-22T12:21:56;22.10;89.60
12130;DHT22;6128;59.340;18.040;2023-07-22T12:24:24;22.20;89.60
12130;DHT22;6128;59.340;18.040;2023-07-22T12:26:51;22.30;89.50
12130;DHT22;6128;59.340;18.040;2023-07-22T12:29:19;22.30;89.60
12130;DHT22;6128;59.340;18.040;2023-07-22T12:31:46;22.20;89.40
12130;DHT22;6128;59.340;18.040;2023-07-22T12:34:13;22.30;89.40
12130;DHT22;6128;59.340;18.040;2023-07-22T12:36:40;22.30;89.20
12130;DHT22;6128;59.340;18.040;2023-07-22T12:39:07;22.40;89.20
12130;DHT22;6128;59.340;18.040;2023-07-22T12:41:36;22.50;89.20
12130;DHT22;6128;59.340;18.040;2023-07-22T12:44:04;22.70;89.00
12130;DHT22;6128;59.340;18.040;2023-07-22T12:46:31;22.60;88.90
12130;DHT22;6128;59.340;18.040;2023-07-22T12:48:58;22.60;88.70
12130;DHT22;6128;59.340;18.040;2023-07-22T12:51:25;22.60;88.60
12130;DHT22;6128;59.340;18.040;2023-07-22T12:53:53;22.60;88.50
12130;DHT22;6128;59.340;18.040;2023-07-22T12:56:20;22.70;88.30
12130;DHT22;6128;59.340;18.040;2023-07-22T12:58:48;22.80;88.30
12130;DHT22;6128;59.340;18.040;2023-07-22T13:01:16;22.80;88.20
12130;DHT22;6128;59.340;18.040;2023-07-22T13:03:43;22.80;88.10
12130;DHT22;6128;59.340;18.040;2023-07-22T13:06:10;22.90;88.00
12130;DHT22;6128;59.340;18.040;2023-07-22T13:08:37;23.00;88.00
12130;DHT22;6128;59.340;18.040;2023-07-22T13:11:04;23.00;88.00
12130;DHT22;6128;59.340;18.040;2023-07-22T13:13:31;23.20;88.00
12130;DHT22;6128;59.340;18.040;2023-07-22T13:15:59;23.30;88.20
12130;DHT22;6128;59.340;18.040;2023-07-22T13:18:27;23.40;88.10
12130;DHT22;6128;59.340;18.040;2023-07-22T13:20:54;23.40;88.20
12130;DHT22;6128;59.340;18.040;2023-07-22T13:23:21;23.30;88.10
12130;DHT22;6128;59.340;18.040;2023-07-22T13:25:48;23.20;88.10
12130;DHT22;6128;59.340;18.040;2023-07-22T13:28:15;23.00;88.10
12130;DHT22;6128;59.340;18.040;2023-07-22T13:30:42;22.90;88.20
12130;DHT22;6128;59.340;18.040;2023-07-22T13:33:10;22.80;88.40
12130;DHT22;6128;59.340;18.040;2023-07-22T13:35:37;22.70;88.60
12130;DHT22;6128;59.340;18.040;2023-07-22T13:38:04;22.50;89.00
12130;DHT22;6128;59.340;18.040;2023-07-22T13:40:32;22.50;89.40
12130;DHT22;6128;59.340;18.040;2023-07-22T13:42:59;22.60;89.70
12130;DHT22;6128;59.340;18.040;2023-07-22T13:45:26;22.60;90.00
12130;DHT22;6128;59.340;18.040;2023-07-22T13:47:53;22.60;90.40
12130;DHT22;6128;59.340;18.040;2023-07-22T13:50:21;23.00;90.50
12130;DHT22;6128;59.340;18.040;2023-07-22T13:52:49;23.30;90.70
12130;DHT22;6128;59.340;18.040;2023-07-22T13:55:16;23.30;90.80
12130;DHT22;6128;59.340;18.040;2023-07-22T13:57:43;23.40;90.90
12130;DHT22;6128;59.340;18.040;2023-07-22T14:00:11;23.20;90.90
12130;DHT22;6128;59.340;18.040;2023-07-22T14:02:39;22.80;90.90
12130;DHT22;6128;59.340;18.040;2023-07-22T14:05:07;22.60;90.90
12130;DHT22;6128;59.340;18.040;2023-07-22T14:07:36;22.50;91.00
12130;DHT22;6128;59.340;18.040;2023-07-22T14:10:04;22.30;91.00
12130;DHT22;6128;59.340;18.040;2023-07-22T14:12:31;22.40;91.00
12130;DHT22;6128;59.340;18.040;2023-07-22T14:14:58;22.40;91.00
12130;DHT22;6128;59.340;18.040;2023-07-22T14:17:25;22.40;91.00
12130;DHT22;6128;59.340;18.040;2023-07-22T14:19:52;22.50;91.00
12130;DHT22;6128;59.340;18.040;2023-07-22T14:22:19;22.50;91.00
12130;DHT22;6128;59.340;18.040;2023-07-22T14:24:48;22.40;91.00
12130;DHT22;6128;59.340;18.040;2023-07-22T14:27:15;22.50;91.00
12130;DHT22;6128;59.340;18.040;2023-07-22T14:29:42;22.70;91.00
12130;DHT22;6128;59.340;18.040;2023-07-22T14:32:09;22.60;91.00
12130;DHT22;6128;59.340;18.040;2023-07-22T14:34:36;22.60;91.00
12130;DHT22;6128;59.340;18.040;2023-07-22T14:37:04;22.60;90.90
12130;DHT22;6128;59.340;18.040;2023-07-22T14:39:31;22.50;90.90
12130;DHT22;6128;59.340;18.040;2023-07-22T14:42:00;22.20;90.90
12130;DHT22;6128;59.340;18.040;2023-07-22T14:44:27;22.00;90.80
12130;DHT22;6128;59.340;18.040;2023-07-22T14:46:54;22.00;90.80
12130;DHT22;6128;59.340;18.040;2023-07-22T14:49:22;21.80;90.90
12130;DHT22;6128;59.340;18.040;2023-07-22T14:51:49;21.80;90.90
12130;DHT22;6128;59.340;18.040;2023-07-22T14:54:16;21.90;90.90
12130;DHT22;6128;59.340;18.040;2023-07-22T14:56:43;21.80;91.00
12130;DHT22;6128;59.340;18.040;2023-07-22T14:59:13;21.70;91.00
12130;DHT22;6128;59.340;18.040;2023-07-22T15:01:41;21.60;91.10
12130;DHT22;6128;59.340;18.040;2023-07-22T15:04:08;21.40;91.30
12130;DHT22;6128;59.340;18.040;2023-07-22T15:06:36;21.10;91.40
12130;DHT22;6128;59.340;18.040;2023-07-22T15:09:03;20.80;91.60
12130;DHT22;6128;59.340;18.040;2023-07-22T15:11:33;20.60;91.80
12130;DHT22;6128;59.340;18.040;2023-07-22T15:14:00;20.60;92.10
12130;DHT22;6128;59.340;18.040;2023-07-22T15:16:29;20.40;92.30
12130;DHT22;6128;59.340;18.040;2023-07-22T15:18:56;20.10;92.60
12130;DHT22;6128;59.340;18.040;2023-07-22T15:21:24;19.80;92.80
12130;DHT22;6128;59.340;18.040;2023-07-22T15:23:51;19.50;92.90
12130;DHT22;6128;59.340;18.040;2023-07-22T15:26:19;19.30;93.10
12130;DHT22;6128;59.340;18.040;2023-07-22T15:28:47;19.10;93.30
12130;DHT22;6128;59.340;18.040;2023-07-22T15:31:16;19.10;93.40
12130;DHT22;6128;59.340;18.040;2023-07-22T15:33:45;19.00;93.40
12130;DHT22;6128;59.340;18.040;2023-07-22T15:36:12;19.20;93.50
12130;DHT22;6128;59.340;18.040;2023-07-22T15:38:40;19.30;93.70